Time;durP1;ratioP1;P1;durP2;ratioP2;P2;SDS_P1;SDS_P2;PMS_P1;PMS_P2;Temp;Humidity;BMP_temperature;BMP_pressure;BME280_temperature;BME280_humidity;BME280_pressure;Samples;Min_cycle;Max_cycle;Signal;HPM_P1;HPM_P2
2022/09/16 00:01:43;;;;;;;0.20;0.20;;;;;;;23.33;76.89;98720.19;5090970;28;20260;-71
2022/09/16 00:04:10;;;;;;;0.43;0.43;;;;;;;23.24;77.59;98710.59;5089856;28;20199;-72
2022/09/16 00:06:37;;;;;;;0.30;0.30;;;;;;;23.19;77.36;98715.44;5090734;28;20204;-71
2022/09/16 00:09:03;;;;;;;0.30;0.30;;;;;;;23.18;77.82;98713.78;5090768;28;20249;-72
2022/09/16 00:11:33;;;;;;;0.30;0.30;;;;;;;23.12;77.54;98730.03;5090156;28;20206;-72
2022/09/16 00:14:02;;;;;;;0.23;0.23;;;;;;;22.79;77.21;98687.72;5050625;28;20200;-71
2022/09/16 00:16:30;;;;;;;0.40;0.40;;;;;;;23.04;77.54;98727.31;5049538;28;20201;-71
2022/09/16 00:18:58;;;;;;;0.30;0.30;;;;;;;23.01;77.69;98720.56;5049983;28;20217;-71
2022/09/16 00:21:26;;;;;;;0.30;0.30;;;;;;;22.98;77.43;98702.53;5050062;28;20215;-71
2022/09/16 00:23:53;;;;;;;0.40;0.40;;;;;;;22.94;78.07;98706.41;5050721;28;20606;-71
2022/09/16 00:26:20;;;;;;;0.30;0.30;;;;;;;22.92;77.78;98690.03;5049841;28;20661;-71
2022/09/16 00:28:49;;;;;;;0.20;0.20;;;;;;;22.88;78.99;98694.72;5050316;28;20665;-71
2022/09/16 00:31:18;;;;;;;0.30;0.30;;;;;;;22.85;78.55;98702.84;5050046;28;20239;-72
2022/09/16 00:33:45;;;;;;;0.30;0.30;;;;;;;22.76;79.53;98708.91;5049285;28;20201;-71
2022/09/16 00:36:13;;;;;;;0.37;0.37;;;;;;;22.73;79.97;98706.59;5049887;28;20199;-71
2022/09/16 00:38:40;;;;;;;0.33;0.33;;;;;;;22.53;80.13;98681.41;5049985;28;20213;-70
2022/09/16 00:41:08;;;;;;;0.30;0.30;;;;;;;22.66;80.78;98713.31;5050066;28;20192;-71
2022/09/16 00:43:50;;;;;;;0.40;0.40;;;;;;;22.66;81.09;98715.09;5050064;28;20266;-69
2022/09/16 00:46:23;;;;;;;0.30;0.30;;;;;;;22.61;81.08;98715.50;5049729;28;20580;-71
2022/09/16 00:48:50;;;;;;;0.37;0.37;;;;;;;22.55;81.12;98713.44;5049791;28;20197;-70
2022/09/16 00:51:19;;;;;;;0.30;0.30;;;;;;;22.52;81.50;98716.31;5049892;28;20256;-71
2022/09/16 00:53:50;;;;;;;0.30;0.30;;;;;;;22.52;81.32;98711.91;5049012;28;20767;-71
2022/09/16 00:56:22;;;;;;;0.30;0.30;;;;;;;22.43;81.84;98706.69;5049484;28;20204;-71
2022/09/16 00:58:54;;;;;;;0.30;0.30;;;;;;;22.47;81.55;98713.31;5048529;28;20226;-70
2022/09/16 01:01:23;;;;;;;0.30;0.30;;;;;;;22.41;81.59;98724.28;5048502;28;20252;-71
2022/09/16 01:03:53;;;;;;;0.30;0.30;;;;;;;22.36;81.40;98726.47;5048009;28;20266;-71
2022/09/16 01:06:24;;;;;;;0.30;0.30;;;;;;;22.34;81.35;98739.69;5048691;28;20272;-71
2022/09/16 01:08:51;;;;;;;0.40;0.40;;;;;;;22.22;81.62;98726.91;5049589;28;20248;-70
2022/09/16 01:11:18;;;;;;;0.30;0.30;;;;;;;22.28;82.12;98737.63;5049611;28;20192;-71
2022/09/16 01:13:46;;;;;;;0.30;0.30;;;;;;;22.20;81.83;98731.41;5085575;28;20226;-71
2022/09/16 01:16:21;;;;;;;0.33;0.33;;;;;;;22.19;82.02;98735.00;5089228;28;20198;-71
2022/09/16 01:19:01;;;;;;;0.30;0.30;;;;;;;22.17;82.59;98729.91;5089573;28;20222;-71
2022/09/16 01:21:43;;;;;;;0.30;0.30;;;;;;;22.11;82.99;98722.63;5089037;28;20195;-71
2022/09/16 01:24:52;;;;;;;0.40;0.40;;;;;;;22.03;83.37;98730.31;5089919;28;20256;-72
2022/09/16 01:27:39;;;;;;;0.40;0.40;;;;;;;22.02;83.72;98730.44;5077817;28;20213;-71
2022/09/16 01:30:35;;;;;;;0.30;0.30;;;;;;;22.01;84.42;98733.97;5089514;28;20187;-71
2022/09/16 01:33:07;;;;;;;0.40;0.40;;;;;;;21.95;84.64;98728.34;5089244;28;20198;-71
2022/09/16 01:35:51;;;;;;;0.30;0.30;;;;;;;21.93;85.31;98724.25;5089862;28;20206;-71
2022/09/16 01:38:33;;;;;;;0.20;0.20;;;;;;;21.87;85.60;98727.34;5089460;28;20294;-71
2022/09/16 01:41:08;;;;;;;0.30;0.30;;;;;;;21.85;85.84;98724.03;5089636;28;20197;-71
2022/09/16 01:43:46;;;;;;;0.37;0.37;;;;;;;21.86;85.98;98733.53;5089556;28;20210;-71
2022/09/16 01:46:20;;;;;;;0.30;0.30;;;;;;;21.81;85.73;98715.63;5092918;28;20197;-71
2022/09/16 01:48:54;;;;;;;0.30;0.30;;;;;;;21.83;86.13;98737.22;5093871;28;20201;-71
2022/09/16 01:51:27;;;;;;;0.33;0.33;;;;;;;21.82;85.78;98732.97;5092608;28;20211;-71
2022/09/16 01:54:03;;;;;;;0.50;0.50;;;;;;;21.83;85.36;98734.63;5093659;28;20203;-71
2022/09/16 01:56:36;;;;;;;0.30;0.30;;;;;;;21.80;85.72;98739.28;5091628;28;20298;-71
2022/09/16 01:59:08;;;;;;;0.30;0.30;;;;;;;21.80;85.79;98741.88;5091983;28;20226;-71
2022/09/16 02:01:40;;;;;;;0.30;0.30;;;;;;;21.75;85.56;98747.50;5093273;28;20223;-71
2022/09/16 02:04:13;;;;;;;0.30;0.30;;;;;;;21.71;85.24;98745.28;5092667;28;20297;-70
2022/09/16 02:06:42;;;;;;;0.30;0.30;;;;;;;21.68;85.15;98751.56;5093198;28;20191;-71
2022/09/16 02:09:14;;;;;;;0.30;0.30;;;;;;;21.62;85.10;98746.88;5092366;28;20206;-70
2022/09/16 02:11:44;;;;;;;0.30;0.30;;;;;;;21.58;84.81;98745.53;5093080;28;20267;-70
2022/09/16 02:14:15;;;;;;;0.20;0.20;;;;;;;21.48;84.56;98729.00;5093164;28;20198;-71
2022/09/16 02:16:45;;;;;;;0.37;0.37;;;;;;;21.52;84.60;98745.22;5091960;28;20205;-72
2022/09/16 02:19:19;;;;;;;0.40;0.40;;;;;;;21.51;84.60;98749.59;5092989;28;20229;-71
2022/09/16 02:21:47;;;;;;;0.40;0.40;;;;;;;21.48;84.86;98744.66;5092204;28;20197;-71
2022/09/16 02:24:18;;;;;;;0.40;0.40;;;;;;;21.42;85.18;98750.38;5092703;28;20199;-71
2022/09/16 02:26:48;;;;;;;0.30;0.30;;;;;;;21.40;85.34;98744.47;5092632;28;20231;-71
2022/09/16 02:29:22;;;;;;;0.40;0.40;;;;;;;21.33;85.68;98751.97;5092374;28;20251;-71
2022/09/16 02:31:52;;;;;;;0.27;0.27;;;;;;;21.34;85.50;98751.03;5092662;28;20211;-71
2022/09/16 02:34:25;;;;;;;0.30;0.30;;;;;;;21.33;85.92;98754.56;5092664;28;20201;-72
2022/09/16 02:36:56;;;;;;;0.40;0.40;;;;;;;21.36;85.65;98767.34;5092438;28;20200;-71
2022/09/16 02:39:28;;;;;;;0.30;0.30;;;;;;;21.33;86.43;98769.38;5092523;28;20216;-71
2022/09/16 02:41:56;;;;;;;0.30;0.30;;;;;;;21.23;86.70;98758.91;5092763;28;20207;-71
2022/09/16 02:44:25;;;;;;;0.40;0.40;;;;;;;21.19;86.30;98759.31;5092491;28;20232;-71
2022/09/16 02:47:01;;;;;;;0.30;0.30;;;;;;;21.15;86.58;98765.72;5090856;28;20206;-71
2022/09/16 02:49:40;;;;;;;0.30;0.30;;;;;;;21.13;86.79;98757.22;5090406;28;20379;-71
2022/09/16 02:52:16;;;;;;;0.30;0.30;;;;;;;21.06;86.92;98763.88;5091513;28;20205;-71
2022/09/16 02:54:51;;;;;;;0.30;0.30;;;;;;;21.07;86.98;98768.09;5091258;28;20206;-71
2022/09/16 02:57:18;;;;;;;0.40;0.40;;;;;;;21.03;87.43;98764.94;5090661;28;20196;-71
2022/09/16 02:59:45;;;;;;;0.33;0.33;;;;;;;21.05;87.80;98749.16;5092290;28;20225;-71
2022/09/16 03:02:12;;;;;;;0.30;0.30;;;;;;;20.83;88.29;98730.13;5091647;28;20209;-71
2022/09/16 03:04:41;;;;;;;0.30;0.30;;;;;;;20.97;88.09;98743.78;5092028;28;20197;-71
2022/09/16 03:07:11;;;;;;;0.30;0.30;;;;;;;20.98;88.15;98741.03;5091484;28;20297;-70
2022/09/16 03:09:42;;;;;;;0.50;0.50;;;;;;;20.95;88.92;98744.72;5092279;28;20203;-71
2022/09/16 03:12:23;;;;;;;0.40;0.40;;;;;;;20.84;89.93;98743.97;5091068;28;20220;-70
2022/09/16 03:15:10;;;;;;;0.30;0.30;;;;;;;20.73;90.42;98747.44;5089948;28;20208;-71
2022/09/16 03:17:49;;;;;;;0.30;0.30;;;;;;;20.75;90.21;98744.69;5087296;28;20200;-71
2022/09/16 03:20:26;;;;;;;0.30;0.30;;;;;;;20.78;89.88;98745.28;5091438;28;20216;-71
2022/09/16 03:23:00;;;;;;;0.30;0.30;;;;;;;20.80;89.53;98742.56;5091809;28;20200;-71
2022/09/16 03:25:38;;;;;;;0.40;0.40;;;;;;;20.70;89.81;98742.50;5090937;28;20218;-71
2022/09/16 03:28:10;;;;;;;0.40;0.40;;;;;;;20.67;90.18;98742.75;5091156;28;20305;-71
2022/09/16 03:30:43;;;;;;;0.43;0.43;;;;;;;20.51;91.39;98725.88;5088828;28;20295;-71
2022/09/16 03:33:19;;;;;;;0.30;0.30;;;;;;;20.59;91.49;98765.97;5090860;28;20291;-71
2022/09/16 03:35:49;;;;;;;0.40;0.40;;;;;;;20.60;92.04;98754.59;5091476;28;20578;-71
2022/09/16 03:38:18;;;;;;;0.33;0.33;;;;;;;20.45;91.79;98727.22;5091295;28;20201;-70
2022/09/16 03:40:47;;;;;;;0.40;0.40;;;;;;;20.52;91.92;98737.97;5091951;28;20214;-71
2022/09/16 03:43:15;;;;;;;0.40;0.40;;;;;;;20.46;92.58;98749.69;5091521;28;20301;-71
2022/09/16 03:45:43;;;;;;;0.50;0.50;;;;;;;20.47;92.70;98738.31;5086033;28;20287;-71
2022/09/16 03:48:10;;;;;;;0.40;0.40;;;;;;;20.45;92.58;98727.22;5090819;28;20221;-71
2022/09/16 03:50:37;;;;;;;0.30;0.30;;;;;;;20.46;92.39;98717.59;5090082;28;20714;-71
2022/09/16 03:53:05;;;;;;;0.40;0.40;;;;;;;20.30;93.04;98705.84;5091288;28;20686;-71
2022/09/16 03:55:32;;;;;;;0.33;0.33;;;;;;;20.32;93.47;98716.16;5089520;28;20196;-70
2022/09/16 03:57:59;;;;;;;0.40;0.40;;;;;;;20.33;94.04;98713.41;5091354;28;20221;-70
2022/09/16 04:00:27;;;;;;;0.33;0.33;;;;;;;20.19;94.41;98697.22;5090620;28;20224;-71
2022/09/16 04:02:54;;;;;;;0.40;0.40;;;;;;;20.25;94.56;98721.00;5090675;28;20265;-71
2022/09/16 04:05:21;;;;;;;0.30;0.30;;;;;;;20.22;94.72;98730.81;5090898;28;20612;-71
2022/09/16 04:07:48;;;;;;;0.30;0.30;;;;;;;20.24;94.67;98736.72;5090404;28;20699;-71
2022/09/16 04:10:17;;;;;;;0.30;0.30;;;;;;;19.99;94.87;98744.81;5090658;28;20191;-71
2022/09/16 04:12:44;;;;;;;0.50;0.50;;;;;;;19.99;95.02;98730.03;5090464;28;20223;-71
2022/09/16 04:15:12;;;;;;;0.30;0.30;;;;;;;20.04;95.24;98727.88;5090781;28;20685;-71
2022/09/16 04:17:39;;;;;;;0.40;0.40;;;;;;;20.11;94.71;98730.81;5089351;28;20193;-70
2022/09/16 04:20:07;;;;;;;0.37;0.37;;;;;;;20.16;94.14;98731.31;5090698;28;20220;-71
2022/09/16 04:22:34;;;;;;;0.40;0.40;;;;;;;20.23;93.07;98742.84;5088908;28;20298;-71
2022/09/16 04:25:01;;;;;;;0.97;0.97;;;;;;;20.26;92.93;98755.63;5085804;28;20331;-71
2022/09/16 04:27:29;;;;;;;0.37;0.37;;;;;;;20.26;93.71;98753.03;5088694;28;20220;-71
2022/09/16 04:29:57;;;;;;;0.40;0.40;;;;;;;20.32;93.22;98757.78;5087638;28;20898;-71
2022/09/16 04:32:24;;;;;;;0.40;0.40;;;;;;;20.38;93.71;98767.72;5088571;28;20204;-71
2022/09/16 04:34:51;;;;;;;0.40;0.40;;;;;;;20.46;93.50;98754.88;5090062;28;20227;-71
2022/09/16 04:37:18;;;;;;;0.40;0.40;;;;;;;20.54;93.01;98755.13;5090106;28;20258;-71
2022/09/16 04:39:45;;;;;;;0.37;0.37;;;;;;;20.64;93.01;98749.97;5090113;28;20207;-70
2022/09/16 04:42:12;;;;;;;0.40;0.40;;;;;;;20.70;92.28;98746.88;5090195;28;20202;-71
2022/09/16 04:44:40;;;;;;;0.30;0.30;;;;;;;20.72;92.41;98751.00;5089955;28;20212;-71
2022/09/16 04:47:07;;;;;;;0.60;0.60;;;;;;;20.71;91.96;98749.34;5090050;28;20571;-71
2022/09/16 04:49:34;;;;;;;0.40;0.40;;;;;;;20.75;92.91;98744.69;5089510;28;20264;-71
2022/09/16 04:52:01;;;;;;;0.30;0.30;;;;;;;20.82;91.46;98754.50;5089213;28;20684;-71
2022/09/16 04:54:28;;;;;;;0.30;0.30;;;;;;;20.87;91.43;98770.56;5089929;28;20209;-71
2022/09/16 04:56:54;;;;;;;0.40;0.40;;;;;;;20.94;89.99;98761.31;5089976;28;20198;-70
2022/09/16 04:59:21;;;;;;;0.40;0.40;;;;;;;21.01;89.70;98766.00;5089841;28;20674;-71
2022/09/16 05:01:49;;;;;;;0.40;0.40;;;;;;;20.90;90.37;98780.75;5090039;28;20213;-71
2022/09/16 05:04:16;;;;;;;0.30;0.30;;;;;;;20.77;92.63;98780.13;5089342;28;20262;-71
2022/09/16 05:06:43;;;;;;;0.40;0.40;;;;;;;20.74;93.58;98764.72;5090269;28;20207;-71
2022/09/16 05:09:11;;;;;;;0.30;0.30;;;;;;;20.87;93.21;98765.38;5089627;28;20208;-70
2022/09/16 05:11:40;;;;;;;0.40;0.40;;;;;;;21.04;92.09;98766.56;5086347;28;20236;-70
2022/09/16 05:14:08;;;;;;;0.30;0.30;;;;;;;21.11;90.91;98762.53;5089841;28;20246;-71
2022/09/16 05:16:35;;;;;;;0.30;0.30;;;;;;;21.13;90.43;98767.66;5090258;28;20204;-71
2022/09/16 05:19:04;;;;;;;0.40;0.40;;;;;;;21.27;90.48;98762.09;5089757;28;20207;-71
2022/09/16 05:21:34;;;;;;;0.30;0.30;;;;;;;21.40;89.91;98762.72;5092500;28;20218;-71
2022/09/16 05:24:02;;;;;;;0.20;0.20;;;;;;;21.57;89.31;98754.28;5094002;28;20354;-71
2022/09/16 05:26:31;;;;;;;0.40;0.40;;;;;;;21.78;88.51;98756.81;5093503;28;20211;-71
2022/09/16 05:29:01;;;;;;;0.30;0.30;;;;;;;21.95;86.91;98753.63;5092873;28;20206;-71
2022/09/16 05:31:30;;;;;;;0.30;0.30;;;;;;;22.12;85.79;98749.53;5093493;28;20199;-71
2022/09/16 05:33:58;;;;;;;0.27;0.27;;;;;;;22.28;86.10;98740.22;5093541;28;20309;-71
2022/09/16 05:36:28;;;;;;;0.30;0.30;;;;;;;22.43;86.13;98727.59;5093333;28;20205;-71
2022/09/16 05:38:55;;;;;;;0.20;0.20;;;;;;;22.67;84.97;98730.66;5093512;28;20210;-71
2022/09/16 05:41:22;;;;;;;0.30;0.30;;;;;;;22.87;83.61;98732.28;5092776;28;20626;-70
2022/09/16 05:43:49;;;;;;;0.30;0.30;;;;;;;23.11;81.42;98728.38;5091425;28;20206;-71
2022/09/16 05:46:19;;;;;;;0.40;0.40;;;;;;;23.32;80.46;98726.41;5091419;28;20224;-71
2022/09/16 05:48:46;;;;;;;0.20;0.20;;;;;;;23.31;80.10;98701.22;5091109;28;20248;-71
2022/09/16 05:51:15;;;;;;;0.30;0.30;;;;;;;23.70;78.47;98728.06;5092331;28;20203;-71
2022/09/16 05:53:45;;;;;;;0.30;0.30;;;;;;;23.88;77.42;98723.69;5087243;28;20215;-72
2022/09/16 05:56:15;;;;;;;0.20;0.20;;;;;;;24.10;76.72;98732.97;5092236;28;20248;-71
2022/09/16 05:58:41;;;;;;;0.30;0.30;;;;;;;24.27;75.85;98721.69;5091999;28;20217;-71
2022/09/16 06:01:10;;;;;;;1.03;1.03;;;;;;;24.55;75.78;98734.59;5090153;28;20281;-70
2022/09/16 06:03:38;;;;;;;0.20;0.20;;;;;;;24.79;73.77;98739.19;5092775;28;20215;-71
2022/09/16 06:06:10;;;;;;;0.20;0.20;;;;;;;24.77;70.91;98743.78;5092277;28;20196;-70
2022/09/16 06:08:37;;;;;;;0.30;0.30;;;;;;;24.88;70.36;98746.16;5092638;28;20207;-70
2022/09/16 06:11:07;;;;;;;0.40;0.40;;;;;;;24.83;70.46;98747.63;5092895;28;20292;-70
2022/09/16 06:13:35;;;;;;;0.60;0.60;;;;;;;25.00;70.88;98755.47;5089114;28;20236;-71
2022/09/16 06:16:02;;;;;;;0.20;0.20;;;;;;;25.20;71.13;98760.50;5090865;28;20195;-70
2022/09/16 06:18:29;;;;;;;0.20;0.20;;;;;;;25.36;69.53;98744.88;5091337;28;20200;-71
2022/09/16 06:20:58;;;;;;;0.20;0.20;;;;;;;25.51;68.57;98744.16;5091555;28;20286;-68
2022/09/16 06:23:25;;;;;;;0.20;0.20;;;;;;;25.76;67.30;98744.25;5090482;28;21029;-68
2022/09/16 06:25:59;;;;;;;0.20;0.20;;;;;;;25.88;67.07;98743.81;5091127;28;20226;-68
2022/09/16 06:28:27;;;;;;;0.20;0.20;;;;;;;26.13;66.15;98741.28;5091192;28;20207;-71
2022/09/16 06:31:01;;;;;;;0.20;0.20;;;;;;;26.26;65.21;98729.34;5090243;28;20207;-69
2022/09/16 06:33:28;;;;;;;0.20;0.20;;;;;;;26.45;64.27;98729.06;5089878;28;20270;-68
2022/09/16 06:35:55;;;;;;;0.20;0.20;;;;;;;26.71;62.43;98744.69;5090417;28;20633;-70
2022/09/16 06:38:22;;;;;;;0.30;0.30;;;;;;;26.90;62.30;98733.84;5088789;28;20203;-69
2022/09/16 06:40:49;;;;;;;0.20;0.20;;;;;;;27.10;62.07;98729.91;5090194;28;20579;-68
2022/09/16 06:43:16;;;;;;;0.20;0.20;;;;;;;27.24;61.91;98732.84;5087349;28;20706;-70
2022/09/16 06:45:44;;;;;;;0.20;0.20;;;;;;;27.34;60.55;98736.06;5089098;28;20603;-69
2022/09/16 06:48:11;;;;;;;0.73;0.73;;;;;;;27.52;59.19;98728.84;5088047;28;20211;-70
2022/09/16 06:50:38;;;;;;;0.20;0.20;;;;;;;27.66;58.71;98738.63;5089973;28;20283;-69
2022/09/16 06:53:05;;;;;;;0.23;0.23;;;;;;;27.88;58.27;98740.53;5089646;28;20286;-69
2022/09/16 06:55:31;;;;;;;0.10;0.10;;;;;;;28.05;58.82;98746.53;5088763;28;20218;-70
2022/09/16 06:57:58;;;;;;;0.20;0.20;;;;;;;28.14;58.10;98750.81;5090247;28;20211;-71
2022/09/16 07:00:25;;;;;;;0.30;0.30;;;;;;;28.07;58.59;98737.50;5088368;28;20215;-72
2022/09/16 07:02:53;;;;;;;0.20;0.20;;;;;;;28.02;58.96;98734.53;5089061;28;20261;-72
2022/09/16 07:05:20;;;;;;;0.10;0.10;;;;;;;28.27;58.84;98732.63;5089007;28;20199;-72
2022/09/16 07:07:48;;;;;;;0.20;0.20;;;;;;;28.46;56.71;98739.25;5090119;28;20210;-72
2022/09/16 07:10:14;;;;;;;0.20;0.20;;;;;;;28.56;57.06;98739.84;5088996;28;21815;-72
2022/09/16 07:12:41;;;;;;;0.30;0.30;;;;;;;28.71;56.72;98743.38;5035246;28;1519039;-72
2022/09/16 07:15:09;;;;;;;0.20;0.20;;;;;;;28.88;55.45;98734.34;5090806;28;20200;-72
2022/09/16 07:17:35;;;;;;;0.10;0.10;;;;;;;28.96;54.22;98742.16;5090296;28;20218;-72
2022/09/16 07:20:04;;;;;;;0.17;0.17;;;;;;;29.07;52.66;98739.09;5089501;28;20203;-72
2022/09/16 07:22:32;;;;;;;0.10;0.10;;;;;;;29.19;51.96;98748.22;5089214;28;20305;-72
2022/09/16 07:24:58;;;;;;;0.20;0.20;;;;;;;29.22;54.07;98739.09;5088983;28;20330;-73
2022/09/16 07:27:25;;;;;;;0.10;0.10;;;;;;;29.33;53.43;98737.88;5089649;28;20203;-72
2022/09/16 07:29:53;;;;;;;0.20;0.20;;;;;;;29.28;52.97;98734.94;5089434;28;20218;-73
2022/09/16 07:32:19;;;;;;;0.30;0.30;;;;;;;29.33;52.95;98748.44;5090790;28;20195;-73
2022/09/16 07:34:46;;;;;;;0.10;0.10;;;;;;;29.30;52.56;98733.78;5089241;28;20203;-71
2022/09/16 07:37:16;;;;;;;0.20;0.20;;;;;;;29.65;51.97;98748.09;5089989;28;20627;-71
2022/09/16 07:39:44;;;;;;;0.10;0.10;;;;;;;29.84;49.66;98746.72;5089662;28;20600;-73
2022/09/16 07:42:11;;;;;;;0.10;0.10;;;;;;;30.03;49.73;98746.97;5083672;28;20222;-72
2022/09/16 07:44:38;;;;;;;0.10;0.10;;;;;;;30.20;50.93;98740.47;5085122;28;20268;-73
2022/09/16 07:47:05;;;;;;;0.10;0.10;;;;;;;30.40;48.99;98742.53;5087717;28;20200;-72
2022/09/16 07:49:32;;;;;;;0.10;0.10;;;;;;;30.59;49.65;98741.88;5088655;28;20203;-73
2022/09/16 07:51:59;;;;;;;0.10;0.10;;;;;;;30.74;49.34;98739.97;5090833;28;20203;-73
2022/09/16 07:54:27;;;;;;;0.10;0.10;;;;;;;30.94;49.51;98735.69;5089182;28;20199;-72
2022/09/16 07:56:54;;;;;;;0.13;0.13;;;;;;;31.00;47.30;98737.59;5088842;28;20207;-73
2022/09/16 07:59:21;;;;;;;0.10;0.10;;;;;;;31.10;48.60;98727.47;5088967;28;20207;-73
2022/09/16 08:01:48;;;;;;;0.13;0.13;;;;;;;31.34;48.25;98731.53;5089513;28;20283;-72
2022/09/16 08:04:15;;;;;;;0.20;0.20;;;;;;;31.53;48.02;98735.31;5087977;28;20659;-72
2022/09/16 08:06:42;;;;;;;0.30;0.30;;;;;;;31.64;46.61;98743.53;5087672;28;20206;-73
2022/09/16 08:09:09;;;;;;;0.20;0.20;;;;;;;31.72;48.57;98735.41;5088537;28;20613;-74
2022/09/16 08:11:37;;;;;;;0.10;0.10;;;;;;;31.89;48.06;98735.88;5089966;28;20657;-74
2022/09/16 08:14:04;;;;;;;0.10;0.10;;;;;;;32.05;46.20;98732.91;5089197;28;20207;-73
2022/09/16 08:16:31;;;;;;;0.10;0.10;;;;;;;32.20;46.57;98732.75;5088549;28;20666;-73
2022/09/16 08:18:58;;;;;;;0.10;0.10;;;;;;;32.18;47.57;98724.19;5088978;28;20211;-73
2022/09/16 08:21:27;;;;;;;0.10;0.10;;;;;;;32.17;48.22;98691.53;5087999;28;20223;-73
2022/09/16 08:23:55;;;;;;;0.10;0.10;;;;;;;32.34;45.75;98709.72;5085157;28;20642;-72
2022/09/16 08:26:22;;;;;;;0.20;0.20;;;;;;;32.48;46.58;98708.72;5088024;28;20203;-72
2022/09/16 08:28:51;;;;;;;0.10;0.10;;;;;;;32.65;46.75;98704.69;5087052;28;20195;-72
2022/09/16 08:31:19;;;;;;;0.15;0.15;;;;;;;32.75;45.27;98702.44;5087699;28;20206;-73
2022/09/16 08:33:46;;;;;;;0.20;0.20;;;;;;;32.76;40.97;98701.44;5089000;28;20203;-72
2022/09/16 08:36:15;;;;;;;0.20;0.20;;;;;;;32.76;40.28;98693.47;5089128;28;20199;-72
2022/09/16 08:38:43;;;;;;;0.10;0.10;;;;;;;32.88;38.88;98705.09;5088060;28;20651;-72
2022/09/16 08:41:28;;;;;;;0.10;0.10;;;;;;;33.01;39.92;98705.09;5089200;28;20310;-73
2022/09/16 08:44:03;;;;;;;0.10;0.10;;;;;;;33.13;38.24;98698.13;5087405;28;20203;-73
2022/09/16 08:46:36;;;;;;;0.20;0.20;;;;;;;33.33;38.69;98697.28;5087491;28;20207;-73
2022/09/16 08:49:16;;;;;;;0.20;0.20;;;;;;;33.50;42.14;98698.47;5088140;28;20273;-73
2022/09/16 08:51:43;;;;;;;0.90;0.90;;;;;;;33.69;38.55;98686.97;5088844;28;20203;-72
2022/09/16 08:54:18;;;;;;;0.20;0.20;;;;;;;33.75;38.19;98675.47;5089344;28;20207;-73
2022/09/16 08:56:48;;;;;;;1.20;1.20;;;;;;;33.98;36.58;98681.09;5089040;28;20273;-72
2022/09/16 08:59:23;;;;;;;0.10;0.10;;;;;;;34.06;36.79;98672.84;5085393;28;20200;-72
2022/09/16 09:01:57;;;;;;;0.20;0.20;;;;;;;34.17;37.84;98674.06;5085773;28;20223;-69
2022/09/16 09:04:24;;;;;;;0.10;0.10;;;;;;;34.34;36.55;98674.34;5087148;28;20260;-73
2022/09/16 09:07:01;;;;;;;0.20;0.20;;;;;;;34.41;35.55;98675.94;5088297;28;20658;-72
2022/09/16 09:09:54;;;;;;;0.10;0.10;;;;;;;34.40;34.23;98668.16;5089176;28;20210;-70
2022/09/16 09:12:29;;;;;;;0.20;0.20;;;;;;;34.54;33.72;98675.03;5088378;28;20234;-73
2022/09/16 09:15:07;;;;;;;0.20;0.20;;;;;;;34.66;35.94;98673.31;5090205;28;20701;-70
2022/09/16 09:17:49;;;;;;;0.10;0.10;;;;;;;34.72;34.66;98667.94;5089880;28;20670;-71
2022/09/16 09:20:26;;;;;;;0.15;0.15;;;;;;;34.40;33.83;98668.97;5089581;28;20206;-72
2022/09/16 09:23:10;;;;;;;0.10;0.10;;;;;;;34.54;33.64;98675.03;5086662;28;20272;-70
2022/09/16 09:25:43;;;;;;;0.20;0.20;;;;;;;34.57;33.04;98663.94;5088451;28;20199;-71
2022/09/16 09:28:34;;;;;;;0.10;0.10;;;;;;;34.73;34.99;98658.91;5088072;28;20220;-71
2022/09/16 09:31:10;;;;;;;0.10;0.10;;;;;;;34.84;38.02;98654.69;5083671;28;20260;-71
2022/09/16 09:33:47;;;;;;;0.20;0.20;;;;;;;34.72;34.84;98656.47;5088582;28;20272;-70
2022/09/16 09:36:40;;;;;;;0.20;0.20;;;;;;;34.53;35.07;98636.94;5088313;28;20203;-70
2022/09/16 09:39:22;;;;;;;0.30;0.30;;;;;;;34.59;36.18;98640.56;5086552;28;20206;-70
2022/09/16 09:41:54;;;;;;;0.20;0.20;;;;;;;34.50;32.38;98637.38;5088110;28;20215;-71
2022/09/16 09:44:37;;;;;;;0.10;0.10;;;;;;;34.40;33.71;98636.22;5088064;28;20215;-71
2022/09/16 09:47:11;;;;;;;0.20;0.20;;;;;;;34.36;34.20;98624.38;5088010;28;20579;-71
2022/09/16 09:49:45;;;;;;;0.10;0.10;;;;;;;34.41;34.28;98624.56;5086725;28;20204;-71
2022/09/16 09:52:17;;;;;;;0.20;0.20;;;;;;;34.23;35.12;98620.78;5088679;28;20568;-71
2022/09/16 09:54:47;;;;;;;0.10;0.10;;;;;;;34.14;33.52;98627.41;5088524;28;20273;-71
2022/09/16 09:57:20;;;;;;;0.10;0.10;;;;;;;34.00;34.89;98612.53;5088899;28;20204;-71
2022/09/16 09:59:52;;;;;;;0.10;0.10;;;;;;;34.04;34.61;98620.91;5087473;28;20214;-71
2022/09/16 10:02:22;;;;;;;0.10;0.10;;;;;;;34.02;35.36;98623.78;5087539;28;20679;-71
2022/09/16 10:04:50;;;;;;;0.10;0.10;;;;;;;33.97;37.61;98615.63;5088485;28;20661;-71
2022/09/16 10:07:20;;;;;;;0.17;0.17;;;;;;;34.14;38.30;98619.44;5092123;28;20208;-71
2022/09/16 10:09:51;;;;;;;0.10;0.10;;;;;;;34.21;36.75;98601.56;5092098;28;20290;-71
2022/09/16 10:12:27;;;;;;;0.20;0.20;;;;;;;34.24;34.21;98601.16;5088209;28;20227;-71
2022/09/16 10:14:54;;;;;;;0.13;0.13;;;;;;;34.49;35.94;98608.28;5089376;28;20282;-70
2022/09/16 10:17:23;;;;;;;0.10;0.10;;;;;;;34.61;37.14;98601.25;5092340;28;20218;-71
2022/09/16 10:19:52;;;;;;;0.10;0.10;;;;;;;34.67;34.21;98608.38;5092715;28;20628;-70
2022/09/16 10:22:23;;;;;;;0.10;0.10;;;;;;;34.54;34.37;98613.78;5091377;28;20670;-71
2022/09/16 10:24:55;;;;;;;0.20;0.20;;;;;;;34.45;36.85;98612.41;5093391;28;20200;-70
2022/09/16 10:27:24;;;;;;;0.20;0.20;;;;;;;34.43;36.88;98617.97;5092742;28;20245;-71
2022/09/16 10:30:21;;;;;;;0.68;0.68;;;;;;;34.48;36.09;98617.31;5091981;28;20218;-71
2022/09/16 10:32:55;;;;;;;0.13;0.13;;;;;;;34.55;35.98;98618.06;5083958;28;20653;-70
2022/09/16 10:35:26;;;;;;;0.10;0.10;;;;;;;34.57;35.31;98616.03;5090442;28;20286;-71
2022/09/16 10:37:55;;;;;;;0.17;0.17;;;;;;;34.61;35.01;98610.06;5089695;28;20206;-71
2022/09/16 10:40:25;;;;;;;0.20;0.20;;;;;;;34.75;35.05;98613.41;5092449;28;20276;-71
2022/09/16 10:42:54;;;;;;;0.30;0.30;;;;;;;34.76;35.71;98609.72;5090679;28;20223;-71
2022/09/16 10:45:27;;;;;;;0.13;0.13;;;;;;;34.58;37.32;98601.66;5092824;28;20199;-71
2022/09/16 10:47:59;;;;;;;0.17;0.17;;;;;;;34.62;39.11;98597.56;5092222;28;20199;-71
2022/09/16 10:50:26;;;;;;;0.10;0.10;;;;;;;34.68;39.62;98596.69;5091658;28;20211;-72
2022/09/16 10:52:54;;;;;;;0.10;0.10;;;;;;;34.65;38.64;98597.13;5092072;28;20606;-72
2022/09/16 10:55:25;;;;;;;0.15;0.15;;;;;;;34.70;40.98;98595.41;5091378;28;20659;-71
2022/09/16 10:57:53;;;;;;;0.10;0.10;;;;;;;34.56;37.78;98587.75;5091077;28;20211;-71
2022/09/16 11:00:22;;;;;;;0.10;0.10;;;;;;;34.53;36.91;98598.84;5088941;28;20294;-72
2022/09/16 11:03:27;;;;;;;0.10;0.10;;;;;;;34.48;37.99;98596.00;5092359;28;20211;-71
2022/09/16 11:06:07;;;;;;;0.20;0.20;;;;;;;34.39;36.22;98576.84;5091155;28;20201;-72
2022/09/16 11:08:48;;;;;;;0.20;0.20;;;;;;;34.40;38.90;98572.34;5092929;28;20206;-72
2022/09/16 11:11:25;;;;;;;0.10;0.10;;;;;;;34.54;39.16;98571.19;5090114;28;20219;-71
2022/09/16 11:14:01;;;;;;;0.20;0.20;;;;;;;34.57;38.07;98574.25;5091233;28;20237;-71
2022/09/16 11:16:54;;;;;;;0.13;0.13;;;;;;;34.70;36.64;98578.66;5091069;28;20203;-72
2022/09/16 11:19:30;;;;;;;0.20;0.20;;;;;;;34.75;34.88;98565.47;5090654;28;20628;-71
2022/09/16 11:22:07;;;;;;;0.10;0.10;;;;;;;34.86;36.95;98567.41;5090464;28;20258;-71
2022/09/16 11:25:15;;;;;;;0.20;0.20;;;;;;;35.05;40.68;98561.03;5091027;28;20230;-71
2022/09/16 11:27:50;;;;;;;0.15;0.15;;;;;;;35.11;34.81;98560.19;5092372;28;20210;-71
2022/09/16 11:30:20;;;;;;;0.17;0.17;;;;;;;35.23;34.34;98558.38;5090577;28;20635;-71
2022/09/16 11:33:21;;;;;;;0.20;0.20;;;;;;;35.04;34.09;98553.25;5091100;28;20543;-71
2022/09/16 11:36:24;;;;;;;0.20;0.20;;;;;;;34.89;34.13;98553.66;5092913;28;20240;-71
2022/09/16 11:39:05;;;;;;;0.10;0.10;;;;;;;35.04;37.79;98550.59;5092897;28;20210;-71
2022/09/16 11:41:44;;;;;;;0.13;0.13;;;;;;;35.18;35.91;98550.25;5093429;28;20233;-71
2022/09/16 11:44:37;;;;;;;0.15;0.15;;;;;;;35.43;32.88;98546.66;5093403;28;20199;-72
2022/09/16 11:47:17;;;;;;;0.15;0.15;;;;;;;35.57;34.36;98542.75;5093507;28;20195;-71
2022/09/16 11:50:03;;;;;;;0.17;0.17;;;;;;;35.72;31.76;98541.34;5093398;28;20203;-72
2022/09/16 11:53:02;;;;;;;0.10;0.10;;;;;;;35.81;32.05;98536.47;5093779;28;20249;-71
2022/09/16 11:55:41;;;;;;;0.15;0.15;;;;;;;35.93;32.20;98533.84;5029932;28;20201;-71